Terminal Aerodrome Forecast
Issued by NWS

Home | Current Version | Previous Version | Text Only | Print | Product List | Glossary On
Versions: 1 2 3 4 5 6 7 8 9 10 11 12 13
000
FTAK31 PANC 241123
TAFAEN
TAF
PAEN 241123Z 2412/2512 17009KT P6SM FEW080 BKN100
     FM241800 20007KT P6SM -SHRA SCT040 OVC080
     FM250600 27005KT 6SM -RA SCT025 OVC035=

USA.gov is the U.S. government's official web portal to all federal, state and local government web resources and services.